x

East Dellwood (46207) Wave Buoy

1:00am - Thu 21st Aug 2014 All times are PDT. -7 hours from GMT.

  • Sig Wave height 3.0ft
  • Peak Period 8s
  • Wind
    7mph, 9mph gusts
  • Sea Temp 62°f
  • Air Temp 61°f
  • Sea Pressure 1015.7mb
  • East Dellwood
  • East Dellwood

More Historic Weather Station data

Upgrade to MSW Pro to gain access to the past 30 days of data for over 8000 Wavebouys and Weather Stations around the globe.

Join Pro

Comparision Forecast

View Surf forecast
   
Thu 08/21 1:00am 3ft 8s 7 9 mph 1015.7mb 62f 61f
12:00am 3ft 8s 4
mph
1015.8mb 62f 61f
Wed 08/20 11:00pm 3ft 8s 4
mph
1015.7mb 62f 61f
10:00pm 3.5ft 8s 2
mph
1015.8mb 62f 61f
9:00pm 3.5ft 8s 2
mph
1015.7mb 62f 62f
8:00pm 3.5ft 8s  -  2 mph 1015.8mb 62f 62f
7:00pm 3.5ft 9s 4
mph
1016mb 62f 62f
6:00pm 4ft 8s 2 4 mph 1016.3mb 62f 63f
5:00pm 4.5ft 9s 4 7 mph 1016.6mb 62f 62f
4:00pm 4ft 8s 7
mph
1016.4mb 62f 62f
3:00pm 4.5ft 6s 7 9 mph 1016.6mb 62f 62f
2:00pm 4.5ft 6s 9
mph
1016.6mb 62f 61f
1:00pm 4.5ft 9s 9 11 mph 1016.3mb 61f 61f
12:00pm 4.5ft 7s 9 11 mph 1016.2mb 61f 61f
11:00am 4.5ft 9s 9 11 mph 1015.9mb 61f 61f
10:00am 5ft 7s 11
mph
1015.6mb 61f 61f
9:00am 5ft 7s 9 11 mph 1015.8mb 61f 61f
8:00am 5ft 6s 9 11 mph 1015.5mb 61f 61f
7:00am 5ft 7s 11 13 mph 1015.1mb 61f 61f
6:00am 5ft 6s 13 16 mph 1014.9mb 61f 61f
5:00am 5ft 6s 13 18 mph 1014.8mb 60f 61f
4:00am 5ft 9s 13 18 mph 1014.8mb 61f 61f
3:00am 5ft 6s 16 18 mph 1014.6mb 61f 61f
2:00am 5ft 9s 18
mph
1014.6mb 61f 61f
1:00am 4.5ft 6s 18 20 mph 1014.4mb 61f 61f
12:00am 4.5ft 10s 16 18 mph 1014.2mb 61f 61f
Tue 08/19 11:00pm 4.5ft 9s 16 18 mph 1014.2mb 62f 61f
10:00pm 4.5ft 10s 16 18 mph 1014.3mb 62f 61f
9:00pm 5ft 10s 16 18 mph 1014.6mb 62f 61f
8:00pm  -   -  16
mph
- - -
7:00pm 5ft 10s 16 18 mph 1014.7mb 62f 61f
6:00pm 5.5ft 10s 18 20 mph 1014.8mb 62f 62f
5:00pm 6ft 10s 18 20 mph 1015mb 62f 61f
4:00pm 5ft 10s 20 22 mph 1015.1mb 62f 61f
3:00pm 6ft 10s 18 22 mph 1015.4mb 62f 61f
2:00pm 5.5ft 10s 18 22 mph 1015.4mb 62f 61f
1:00pm 5ft 6s 18 20 mph 1015.3mb 62f 61f
12:00pm 5ft 10s 18 20 mph 1015.3mb 62f 61f
11:00am 6ft 10s 16 20 mph 1015.4mb 61f 61f
10:00am 5.5ft 10s 16 18 mph 1015.5mb 61f 61f
9:00am 5.5ft 10s 16 18 mph 1015.5mb 61f 61f
8:00am 5.5ft 10s 13 18 mph 1015.4mb 61f 61f
7:00am 6ft 10s 16 20 mph 1015.4mb 61f 61f
6:00am 6ft 10s 16 18 mph 1015.2mb 62f 61f
5:00am 6ft 11s 16 20 mph 1015.4mb 62f 60f
4:00am 6.5ft 11s 16
mph
1015.5mb 62f 61f
3:00am 7ft 11s 13 16 mph 1015.6mb 62f 61f
2:00am 6ft 10s 13 18 mph 1015.4mb 62f 61f
1:00am 6ft 12s 11 13 mph 1015.5mb 62f 62f
12:00am 5ft 11s 9 11 mph 1015.8mb 62f 62f
Mon 08/18 11:00pm 5.5ft 11s 11 13 mph 1016.2mb 62f 62f
10:00pm 6ft 12s 11 13 mph 1015.9mb 62f 61f
9:00pm 6ft 12s 13 16 mph 1016.3mb 62f 61f
8:00pm 6ft 10s 9 11 mph 1016.4mb 62f 62f
7:00pm 6ft 9s 11 13 mph 1016.7mb 62f 63f
6:00pm 6ft 10s 11 13 mph 1017.2mb 62f 63f
5:00pm 6.5ft 10s 11 13 mph 1017.8mb 62f 63f
4:00pm 6ft 10s 11 13 mph 1018.1mb 62f 63f
3:00pm 6ft 10s 9 11 mph 1018.4mb 62f 63f
2:00pm 6ft 10s 13 16 mph 1019mb 62f 63f
1:00pm 5ft 10s 9 11 mph 1018.6mb 63f 63f
12:00pm 5ft 10s 11 13 mph 1019.2mb 62f 63f
11:00am 5ft 10s 13 16 mph 1019.3mb 61f 63f
10:00am 5.5ft 10s 9 11 mph 1019.3mb 61f 62f
9:00am 5.5ft 8s 9 13 mph 1019.7mb 61f 62f
8:00am 5.5ft 10s 9 11 mph 1020mb 61f 62f
7:00am 5ft 9s 11 13 mph 1020.2mb 61f 62f
6:00am 5ft 10s 9 11 mph 1020.5mb 61f 62f
5:00am 5.5ft 8s 9 11 mph 1020.8mb 61f 62f
4:00am 5ft 10s 9 11 mph 1021mb 61f 62f
3:00am 5ft 10s 9 13 mph 1021.3mb 61f 62f
2:00am 4.5ft 11s 11 13 mph 1021.6mb 61f 62f
1:00am 4ft 11s 11 13 mph 1022mb 62f 62f
12:00am 4ft 9s 11 13 mph 1022.2mb 62f 62f
Sun 08/17 11:00pm 3.5ft 10s 13 16 mph 1022.4mb 63f 63f
10:00pm 3.5ft 10s 13 16 mph 1023mb 62f 63f
9:00pm 4ft 8s 13 16 mph 1023.1mb 62f 62f
8:00pm 4ft 10s 13 16 mph 1023.2mb 62f 62f
7:00pm 4ft 15s 16 18 mph 1023.4mb 63f 62f
6:00pm 4ft 9s 13 18 mph 1023.8mb 63f 63f
5:00pm 4.5ft 10s 13 16 mph 1024.3mb 63f 63f
4:00pm 4.5ft 10s 13 16 mph 1024.5mb 63f 63f
3:00pm 4.5ft 10s 13 16 mph 1024.6mb 63f 62f
2:00pm 4ft 9s 13 16 mph 1024.6mb 63f 62f
1:00pm 4ft 9s 13 16 mph 1024.5mb 62f 62f
12:00pm 4ft 10s 13 18 mph 1024.7mb 62f 62f
11:00am 4.5ft 10s 16 20 mph 1024.6mb 62f 62f
10:00am 4ft 10s 13 18 mph 1024.2mb 62f 61f